sensor_id;sensor_type;location;lat;lon;timestamp;P1;durP1;ratioP1;P2;durP2;ratioP2
8986;SDS011;4529;51.360;12.474;2022-10-24T00:04:14;5.20;;;2.40;;
8986;SDS011;4529;51.360;12.474;2022-10-24T00:09:17;2.50;;;2.27;;
8986;SDS011;4529;51.360;12.474;2022-10-24T00:14:21;2.43;;;2.27;;
8986;SDS011;4529;51.360;12.474;2022-10-24T00:19:24;3.63;;;2.37;;
8986;SDS011;4529;51.360;12.474;2022-10-24T00:24:28;4.47;;;2.13;;
8986;SDS011;4529;51.360;12.474;2022-10-24T00:29:31;2.47;;;2.20;;
8986;SDS011;4529;51.360;12.474;2022-10-24T00:34:35;2.63;;;2.40;;
8986;SDS011;4529;51.360;12.474;2022-10-24T00:39:38;2.40;;;2.20;;
8986;SDS011;4529;51.360;12.474;2022-10-24T00:44:42;2.73;;;2.37;;
8986;SDS011;4529;51.360;12.474;2022-10-24T00:49:57;3.07;;;2.40;;
8986;SDS011;4529;51.360;12.474;2022-10-24T00:55:04;2.97;;;2.50;;
8986;SDS011;4529;51.360;12.474;2022-10-24T01:00:09;4.23;;;2.87;;
8986;SDS011;4529;51.360;12.474;2022-10-24T01:05:12;5.17;;;2.30;;
8986;SDS011;4529;51.360;12.474;2022-10-24T01:20:58;4.97;;;2.20;;
8986;SDS011;4529;51.360;12.474;2022-10-24T01:26:22;2.60;;;2.40;;
8986;SDS011;4529;51.360;12.474;2022-10-24T01:31:48;2.73;;;2.50;;
8986;SDS011;4529;51.360;12.474;2022-10-24T01:36:58;2.60;;;2.40;;
8986;SDS011;4529;51.360;12.474;2022-10-24T01:42:07;3.00;;;2.70;;
8986;SDS011;4529;51.360;12.474;2022-10-24T01:47:18;2.53;;;2.33;;
8986;SDS011;4529;51.360;12.474;2022-10-24T01:52:17;2.97;;;2.50;;
8986;SDS011;4529;51.360;12.474;2022-10-24T01:57:25;3.07;;;2.70;;
8986;SDS011;4529;51.360;12.474;2022-10-24T02:02:31;2.70;;;2.50;;
8986;SDS011;4529;51.360;12.474;2022-10-24T02:07:36;4.67;;;2.50;;
8986;SDS011;4529;51.360;12.474;2022-10-24T02:12:40;2.80;;;2.30;;
8986;SDS011;4529;51.360;12.474;2022-10-24T02:17:42;3.30;;;2.30;;
8986;SDS011;4529;51.360;12.474;2022-10-24T02:28:10;2.60;;;2.40;;
8986;SDS011;4529;51.360;12.474;2022-10-24T02:33:12;4.13;;;2.30;;
8986;SDS011;4529;51.360;12.474;2022-10-24T02:38:17;4.60;;;2.50;;
8986;SDS011;4529;51.360;12.474;2022-10-24T02:43:33;4.67;;;2.30;;
8986;SDS011;4529;51.360;12.474;2022-10-24T02:48:37;2.50;;;2.30;;
8986;SDS011;4529;51.360;12.474;2022-10-24T02:53:40;2.73;;;2.27;;
8986;SDS011;4529;51.360;12.474;2022-10-24T02:58:43;4.27;;;2.37;;
8986;SDS011;4529;51.360;12.474;2022-10-24T03:03:47;2.60;;;2.40;;
8986;SDS011;4529;51.360;12.474;2022-10-24T03:08:50;3.23;;;2.27;;
8986;SDS011;4529;51.360;12.474;2022-10-24T03:13:55;5.80;;;2.27;;
8986;SDS011;4529;51.360;12.474;2022-10-24T03:18:59;5.33;;;2.40;;
8986;SDS011;4529;51.360;12.474;2022-10-24T03:24:02;3.53;;;2.27;;
8986;SDS011;4529;51.360;12.474;2022-10-24T03:29:06;3.30;;;2.30;;
8986;SDS011;4529;51.360;12.474;2022-10-24T03:34:11;6.63;;;2.70;;
8986;SDS011;4529;51.360;12.474;2022-10-24T03:39:15;6.87;;;2.20;;
8986;SDS011;4529;51.360;12.474;2022-10-24T03:44:19;4.90;;;2.30;;
8986;SDS011;4529;51.360;12.474;2022-10-24T03:49:23;6.20;;;2.20;;
8986;SDS011;4529;51.360;12.474;2022-10-24T03:54:27;4.40;;;2.47;;
8986;SDS011;4529;51.360;12.474;2022-10-24T03:59:31;3.67;;;2.03;;
8986;SDS011;4529;51.360;12.474;2022-10-24T04:04:35;3.63;;;2.10;;
8986;SDS011;4529;51.360;12.474;2022-10-24T04:09:40;3.93;;;1.90;;
8986;SDS011;4529;51.360;12.474;2022-10-24T04:14:44;6.30;;;2.20;;
8986;SDS011;4529;51.360;12.474;2022-10-24T04:19:48;5.43;;;2.30;;
8986;SDS011;4529;51.360;12.474;2022-10-24T04:24:52;5.43;;;2.17;;
8986;SDS011;4529;51.360;12.474;2022-10-24T04:29:56;9.93;;;2.17;;
8986;SDS011;4529;51.360;12.474;2022-10-24T04:35:00;3.23;;;1.73;;
8986;SDS011;4529;51.360;12.474;2022-10-24T04:40:03;4.10;;;1.77;;
8986;SDS011;4529;51.360;12.474;2022-10-24T04:45:07;4.87;;;2.30;;
8986;SDS011;4529;51.360;12.474;2022-10-24T04:50:10;5.77;;;2.17;;
8986;SDS011;4529;51.360;12.474;2022-10-24T04:55:15;4.13;;;1.90;;
8986;SDS011;4529;51.360;12.474;2022-10-24T05:00:19;6.77;;;2.00;;
8986;SDS011;4529;51.360;12.474;2022-10-24T05:05:23;5.93;;;2.00;;
8986;SDS011;4529;51.360;12.474;2022-10-24T05:10:27;2.23;;;1.70;;
8986;SDS011;4529;51.360;12.474;2022-10-24T05:15:30;2.00;;;1.80;;
8986;SDS011;4529;51.360;12.474;2022-10-24T05:20:34;4.53;;;2.00;;
8986;SDS011;4529;51.360;12.474;2022-10-24T05:25:38;3.27;;;1.90;;
8986;SDS011;4529;51.360;12.474;2022-10-24T05:30:42;5.73;;;2.20;;
8986;SDS011;4529;51.360;12.474;2022-10-24T05:35:46;5.20;;;1.97;;
8986;SDS011;4529;51.360;12.474;2022-10-24T05:40:50;4.53;;;1.97;;
8986;SDS011;4529;51.360;12.474;2022-10-24T05:45:53;6.10;;;2.07;;
8986;SDS011;4529;51.360;12.474;2022-10-24T05:50:57;4.33;;;2.07;;
8986;SDS011;4529;51.360;12.474;2022-10-24T05:56:00;6.33;;;2.27;;
8986;SDS011;4529;51.360;12.474;2022-10-24T06:01:04;4.37;;;2.10;;
8986;SDS011;4529;51.360;12.474;2022-10-24T06:06:08;3.03;;;2.07;;
8986;SDS011;4529;51.360;12.474;2022-10-24T06:11:11;4.60;;;1.80;;
8986;SDS011;4529;51.360;12.474;2022-10-24T06:16:14;2.90;;;1.60;;
8986;SDS011;4529;51.360;12.474;2022-10-24T06:21:17;5.17;;;1.90;;
8986;SDS011;4529;51.360;12.474;2022-10-24T06:26:21;5.47;;;1.77;;
8986;SDS011;4529;51.360;12.474;2022-10-24T06:36:23;5.03;;;1.97;;
8986;SDS011;4529;51.360;12.474;2022-10-24T06:41:27;1.53;;;1.37;;
8986;SDS011;4529;51.360;12.474;2022-10-24T06:46:31;2.23;;;1.53;;
8986;SDS011;4529;51.360;12.474;2022-10-24T06:51:34;2.83;;;1.60;;
8986;SDS011;4529;51.360;12.474;2022-10-24T06:56:38;4.23;;;1.90;;
8986;SDS011;4529;51.360;12.474;2022-10-24T07:01:42;2.67;;;1.77;;
8986;SDS011;4529;51.360;12.474;2022-10-24T07:06:45;2.73;;;1.50;;
8986;SDS011;4529;51.360;12.474;2022-10-24T07:11:49;3.27;;;1.57;;
8986;SDS011;4529;51.360;12.474;2022-10-24T07:16:52;2.30;;;1.60;;
8986;SDS011;4529;51.360;12.474;2022-10-24T07:21:56;4.73;;;1.70;;
8986;SDS011;4529;51.360;12.474;2022-10-24T07:26:59;2.77;;;1.83;;
8986;SDS011;4529;51.360;12.474;2022-10-24T07:32:03;3.03;;;1.80;;
8986;SDS011;4529;51.360;12.474;2022-10-24T07:37:06;4.03;;;1.60;;
8986;SDS011;4529;51.360;12.474;2022-10-24T07:42:11;2.90;;;1.93;;
8986;SDS011;4529;51.360;12.474;2022-10-24T07:47:15;9.30;;;1.77;;
8986;SDS011;4529;51.360;12.474;2022-10-24T07:52:19;4.67;;;1.70;;
8986;SDS011;4529;51.360;12.474;2022-10-24T07:57:23;3.03;;;1.60;;
8986;SDS011;4529;51.360;12.474;2022-10-24T08:02:27;2.87;;;1.67;;
8986;SDS011;4529;51.360;12.474;2022-10-24T08:07:33;2.07;;;1.60;;
8986;SDS011;4529;51.360;12.474;2022-10-24T08:12:37;5.50;;;1.90;;
8986;SDS011;4529;51.360;12.474;2022-10-24T08:17:40;3.57;;;1.70;;
8986;SDS011;4529;51.360;12.474;2022-10-24T08:22:44;4.27;;;2.00;;
8986;SDS011;4529;51.360;12.474;2022-10-24T08:27:47;3.60;;;1.70;;
8986;SDS011;4529;51.360;12.474;2022-10-24T08:32:51;2.70;;;1.57;;
8986;SDS011;4529;51.360;12.474;2022-10-24T08:37:54;4.10;;;1.67;;
8986;SDS011;4529;51.360;12.474;2022-10-24T08:42:58;6.23;;;2.00;;
8986;SDS011;4529;51.360;12.474;2022-10-24T08:48:06;2.67;;;1.80;;
8986;SDS011;4529;51.360;12.474;2022-10-24T08:53:12;2.53;;;1.47;;
8986;SDS011;4529;51.360;12.474;2022-10-24T08:58:19;2.30;;;1.53;;
8986;SDS011;4529;51.360;12.474;2022-10-24T09:03:31;2.97;;;1.93;;
8986;SDS011;4529;51.360;12.474;2022-10-24T09:08:53;1.67;;;1.57;;
8986;SDS011;4529;51.360;12.474;2022-10-24T09:13:56;2.97;;;1.57;;
8986;SDS011;4529;51.360;12.474;2022-10-24T09:18:59;4.77;;;2.00;;
8986;SDS011;4529;51.360;12.474;2022-10-24T09:24:05;2.77;;;1.70;;
8986;SDS011;4529;51.360;12.474;2022-10-24T09:29:08;6.97;;;1.57;;
8986;SDS011;4529;51.360;12.474;2022-10-24T09:34:12;3.87;;;1.70;;
8986;SDS011;4529;51.360;12.474;2022-10-24T09:39:26;3.67;;;1.60;;
8986;SDS011;4529;51.360;12.474;2022-10-24T09:44:38;2.63;;;1.80;;
8986;SDS011;4529;51.360;12.474;2022-10-24T09:49:40;3.70;;;1.67;;
8986;SDS011;4529;51.360;12.474;2022-10-24T09:54:44;2.63;;;1.90;;
8986;SDS011;4529;51.360;12.474;2022-10-24T09:59:48;4.47;;;1.77;;
8986;SDS011;4529;51.360;12.474;2022-10-24T10:10:23;2.03;;;1.60;;
8986;SDS011;4529;51.360;12.474;2022-10-24T10:15:35;6.03;;;1.80;;
8986;SDS011;4529;51.360;12.474;2022-10-24T10:20:41;5.43;;;1.90;;
8986;SDS011;4529;51.360;12.474;2022-10-24T10:25:43;3.27;;;1.93;;
8986;SDS011;4529;51.360;12.474;2022-10-24T10:30:50;3.07;;;2.20;;
8986;SDS011;4529;51.360;12.474;2022-10-24T10:36:03;4.23;;;2.00;;
8986;SDS011;4529;51.360;12.474;2022-10-24T10:51:42;1.93;;;1.83;;
8986;SDS011;4529;51.360;12.474;2022-10-24T10:57:13;3.20;;;2.07;;
8986;SDS011;4529;51.360;12.474;2022-10-24T11:07:44;4.63;;;2.07;;
8986;SDS011;4529;51.360;12.474;2022-10-24T11:12:52;4.80;;;2.07;;
8986;SDS011;4529;51.360;12.474;2022-10-24T11:17:58;2.80;;;1.67;;
8986;SDS011;4529;51.360;12.474;2022-10-24T11:28:30;3.80;;;1.87;;
8986;SDS011;4529;51.360;12.474;2022-10-24T11:33:42;3.27;;;1.80;;
8986;SDS011;4529;51.360;12.474;2022-10-24T11:38:54;2.13;;;1.50;;
8986;SDS011;4529;51.360;12.474;2022-10-24T11:43:54;2.80;;;1.80;;
8986;SDS011;4529;51.360;12.474;2022-10-24T11:48:59;3.70;;;1.77;;
8986;SDS011;4529;51.360;12.474;2022-10-24T11:54:16;4.13;;;1.90;;
8986;SDS011;4529;51.360;12.474;2022-10-24T11:59:25;4.80;;;2.20;;
8986;SDS011;4529;51.360;12.474;2022-10-24T12:04:37;7.73;;;1.97;;
8986;SDS011;4529;51.360;12.474;2022-10-24T12:09:49;3.93;;;1.63;;
8986;SDS011;4529;51.360;12.474;2022-10-24T12:15:16;2.20;;;1.67;;
8986;SDS011;4529;51.360;12.474;2022-10-24T12:20:35;4.80;;;1.60;;
8986;SDS011;4529;51.360;12.474;2022-10-24T12:25:38;2.60;;;1.40;;
8986;SDS011;4529;51.360;12.474;2022-10-24T12:30:41;1.90;;;1.50;;
8986;SDS011;4529;51.360;12.474;2022-10-24T12:35:46;5.47;;;1.50;;
8986;SDS011;4529;51.360;12.474;2022-10-24T12:40:53;2.53;;;1.40;;
8986;SDS011;4529;51.360;12.474;2022-10-24T12:46:50;3.07;;;1.30;;
8986;SDS011;4529;51.360;12.474;2022-10-24T12:51:27;1.40;;;1.20;;
8986;SDS011;4529;51.360;12.474;2022-10-24T12:56:32;1.20;;;1.10;;
8986;SDS011;4529;51.360;12.474;2022-10-24T13:01:34;7.20;;;1.17;;
8986;SDS011;4529;51.360;12.474;2022-10-24T13:06:55;1.20;;;1.00;;
8986;SDS011;4529;51.360;12.474;2022-10-24T13:18:20;2.97;;;1.10;;
8986;SDS011;4529;51.360;12.474;2022-10-24T13:23:26;3.33;;;1.37;;
8986;SDS011;4529;51.360;12.474;2022-10-24T13:28:33;1.90;;;1.10;;
8986;SDS011;4529;51.360;12.474;2022-10-24T13:38:44;1.83;;;1.30;;
8986;SDS011;4529;51.360;12.474;2022-10-24T13:43:51;1.53;;;1.20;;
8986;SDS011;4529;51.360;12.474;2022-10-24T13:48:55;1.53;;;1.23;;
8986;SDS011;4529;51.360;12.474;2022-10-24T13:54:01;2.00;;;1.10;;
8986;SDS011;4529;51.360;12.474;2022-10-24T13:59:24;5.73;;;1.37;;
8986;SDS011;4529;51.360;12.474;2022-10-24T14:04:09;1.93;;;1.40;;
8986;SDS011;4529;51.360;12.474;2022-10-24T14:09:12;1.00;;;1.00;;
8986;SDS011;4529;51.360;12.474;2022-10-24T14:14:27;2.97;;;1.30;;
8986;SDS011;4529;51.360;12.474;2022-10-24T14:19:31;5.33;;;1.20;;
8986;SDS011;4529;51.360;12.474;2022-10-24T14:24:35;1.13;;;1.07;;
8986;SDS011;4529;51.360;12.474;2022-10-24T14:29:39;1.83;;;1.20;;
8986;SDS011;4529;51.360;12.474;2022-10-24T14:34:43;1.57;;;1.47;;
8986;SDS011;4529;51.360;12.474;2022-10-24T14:39:47;1.53;;;1.40;;
8986;SDS011;4529;51.360;12.474;2022-10-24T14:44:51;2.37;;;1.30;;
8986;SDS011;4529;51.360;12.474;2022-10-24T14:49:55;1.37;;;1.00;;
8986;SDS011;4529;51.360;12.474;2022-10-24T14:55:06;1.87;;;1.27;;
8986;SDS011;4529;51.360;12.474;2022-10-24T15:00:17;1.17;;;1.00;;
8986;SDS011;4529;51.360;12.474;2022-10-24T15:10:24;1.63;;;1.00;;
8986;SDS011;4529;51.360;12.474;2022-10-24T15:15:28;3.30;;;1.77;;
8986;SDS011;4529;51.360;12.474;2022-10-24T15:20:33;3.87;;;1.30;;
8986;SDS011;4529;51.360;12.474;2022-10-24T15:25:36;4.70;;;1.60;;
8986;SDS011;4529;51.360;12.474;2022-10-24T15:30:39;1.67;;;1.23;;
8986;SDS011;4529;51.360;12.474;2022-10-24T15:35:43;1.53;;;1.20;;
8986;SDS011;4529;51.360;12.474;2022-10-24T15:40:47;3.17;;;1.47;;
8986;SDS011;4529;51.360;12.474;2022-10-24T15:45:50;1.30;;;1.10;;
8986;SDS011;4529;51.360;12.474;2022-10-24T15:50:53;1.63;;;1.37;;
8986;SDS011;4529;51.360;12.474;2022-10-24T15:55:57;3.80;;;1.40;;
8986;SDS011;4529;51.360;12.474;2022-10-24T16:01:01;1.60;;;1.50;;
8986;SDS011;4529;51.360;12.474;2022-10-24T16:06:05;3.30;;;1.43;;
8986;SDS011;4529;51.360;12.474;2022-10-24T16:11:10;1.50;;;1.40;;
8986;SDS011;4529;51.360;12.474;2022-10-24T16:16:13;3.07;;;1.60;;
8986;SDS011;4529;51.360;12.474;2022-10-24T16:21:18;4.63;;;1.73;;
8986;SDS011;4529;51.360;12.474;2022-10-24T16:26:21;1.90;;;1.47;;
8986;SDS011;4529;51.360;12.474;2022-10-24T16:31:25;2.00;;;1.77;;
8986;SDS011;4529;51.360;12.474;2022-10-24T16:36:30;2.53;;;1.70;;
8986;SDS011;4529;51.360;12.474;2022-10-24T16:41:34;3.10;;;1.70;;
8986;SDS011;4529;51.360;12.474;2022-10-24T16:46:38;2.40;;;1.70;;
8986;SDS011;4529;51.360;12.474;2022-10-24T16:51:43;2.60;;;1.90;;
8986;SDS011;4529;51.360;12.474;2022-10-24T16:56:46;3.20;;;1.57;;
8986;SDS011;4529;51.360;12.474;2022-10-24T17:01:50;2.30;;;1.70;;
8986;SDS011;4529;51.360;12.474;2022-10-24T17:06:54;2.03;;;1.83;;
8986;SDS011;4529;51.360;12.474;2022-10-24T17:11:58;2.80;;;1.80;;
8986;SDS011;4529;51.360;12.474;2022-10-24T17:17:03;4.03;;;1.90;;
8986;SDS011;4529;51.360;12.474;2022-10-24T17:22:06;4.10;;;1.97;;
8986;SDS011;4529;51.360;12.474;2022-10-24T17:27:10;3.30;;;1.80;;
8986;SDS011;4529;51.360;12.474;2022-10-24T17:32:14;4.63;;;1.93;;
8986;SDS011;4529;51.360;12.474;2022-10-24T17:37:18;4.17;;;1.83;;
8986;SDS011;4529;51.360;12.474;2022-10-24T17:42:20;5.33;;;2.07;;
8986;SDS011;4529;51.360;12.474;2022-10-24T17:47:24;2.73;;;2.00;;
8986;SDS011;4529;51.360;12.474;2022-10-24T17:52:28;4.63;;;2.00;;
8986;SDS011;4529;51.360;12.474;2022-10-24T17:57:31;4.70;;;2.03;;
8986;SDS011;4529;51.360;12.474;2022-10-24T18:02:35;4.07;;;1.80;;
8986;SDS011;4529;51.360;12.474;2022-10-24T18:07:39;2.10;;;1.90;;
8986;SDS011;4529;51.360;12.474;2022-10-24T18:12:43;2.30;;;1.80;;
8986;SDS011;4529;51.360;12.474;2022-10-24T18:17:47;4.70;;;2.00;;
8986;SDS011;4529;51.360;12.474;2022-10-24T18:22:51;2.93;;;2.00;;
8986;SDS011;4529;51.360;12.474;2022-10-24T18:27:56;8.23;;;2.20;;
8986;SDS011;4529;51.360;12.474;2022-10-24T18:33:00;4.27;;;2.03;;
8986;SDS011;4529;51.360;12.474;2022-10-24T18:38:04;3.37;;;2.10;;
8986;SDS011;4529;51.360;12.474;2022-10-24T18:43:08;2.97;;;2.33;;
8986;SDS011;4529;51.360;12.474;2022-10-24T18:48:12;3.50;;;1.97;;
8986;SDS011;4529;51.360;12.474;2022-10-24T18:53:18;6.00;;;2.53;;
8986;SDS011;4529;51.360;12.474;2022-10-24T18:58:25;4.37;;;2.07;;
8986;SDS011;4529;51.360;12.474;2022-10-24T19:03:31;4.70;;;2.50;;
8986;SDS011;4529;51.360;12.474;2022-10-24T19:08:33;9.70;;;2.33;;
8986;SDS011;4529;51.360;12.474;2022-10-24T19:13:37;5.67;;;2.40;;
8986;SDS011;4529;51.360;12.474;2022-10-24T19:18:42;3.63;;;2.23;;
8986;SDS011;4529;51.360;12.474;2022-10-24T19:23:44;3.67;;;2.30;;
8986;SDS011;4529;51.360;12.474;2022-10-24T19:28:48;4.27;;;2.37;;
8986;SDS011;4529;51.360;12.474;2022-10-24T19:33:52;6.47;;;2.40;;
8986;SDS011;4529;51.360;12.474;2022-10-24T19:38:55;9.90;;;2.30;;
8986;SDS011;4529;51.360;12.474;2022-10-24T19:43:58;4.17;;;2.27;;
8986;SDS011;4529;51.360;12.474;2022-10-24T19:49:02;6.57;;;2.37;;
8986;SDS011;4529;51.360;12.474;2022-10-24T19:54:05;5.00;;;2.30;;
8986;SDS011;4529;51.360;12.474;2022-10-24T19:59:09;8.13;;;2.67;;
8986;SDS011;4529;51.360;12.474;2022-10-24T20:04:12;6.70;;;2.43;;
8986;SDS011;4529;51.360;12.474;2022-10-24T20:09:16;6.33;;;2.50;;
8986;SDS011;4529;51.360;12.474;2022-10-24T20:14:19;6.37;;;2.20;;
8986;SDS011;4529;51.360;12.474;2022-10-24T20:19:22;4.00;;;2.50;;
8986;SDS011;4529;51.360;12.474;2022-10-24T20:24:26;5.70;;;2.27;;
8986;SDS011;4529;51.360;12.474;2022-10-24T20:29:29;3.27;;;2.40;;
8986;SDS011;4529;51.360;12.474;2022-10-24T20:34:34;4.20;;;2.37;;
8986;SDS011;4529;51.360;12.474;2022-10-24T20:39:37;7.60;;;2.70;;
8986;SDS011;4529;51.360;12.474;2022-10-24T20:44:41;6.13;;;2.50;;
8986;SDS011;4529;51.360;12.474;2022-10-24T20:49:45;6.37;;;2.20;;
8986;SDS011;4529;51.360;12.474;2022-10-24T20:54:50;7.70;;;2.83;;
8986;SDS011;4529;51.360;12.474;2022-10-24T20:59:54;6.03;;;2.27;;
8986;SDS011;4529;51.360;12.474;2022-10-24T21:04:58;3.83;;;2.43;;
8986;SDS011;4529;51.360;12.474;2022-10-24T21:10:02;6.60;;;2.60;;
8986;SDS011;4529;51.360;12.474;2022-10-24T21:15:06;4.53;;;2.37;;
8986;SDS011;4529;51.360;12.474;2022-10-24T21:20:09;3.60;;;2.57;;
8986;SDS011;4529;51.360;12.474;2022-10-24T21:25:13;5.00;;;2.20;;
8986;SDS011;4529;51.360;12.474;2022-10-24T21:30:16;3.10;;;2.53;;
8986;SDS011;4529;51.360;12.474;2022-10-24T21:35:21;5.33;;;2.50;;
8986;SDS011;4529;51.360;12.474;2022-10-24T21:40:25;10.43;;;2.50;;
8986;SDS011;4529;51.360;12.474;2022-10-24T21:45:29;8.67;;;2.43;;
8986;SDS011;4529;51.360;12.474;2022-10-24T21:50:34;2.43;;;2.17;;
8986;SDS011;4529;51.360;12.474;2022-10-24T21:55:38;2.37;;;2.10;;
8986;SDS011;4529;51.360;12.474;2022-10-24T22:00:42;6.17;;;2.33;;
8986;SDS011;4529;51.360;12.474;2022-10-24T22:05:55;4.30;;;2.40;;
8986;SDS011;4529;51.360;12.474;2022-10-24T22:11:02;5.30;;;2.30;;
8986;SDS011;4529;51.360;12.474;2022-10-24T22:16:02;6.13;;;2.27;;
8986;SDS011;4529;51.360;12.474;2022-10-24T22:21:06;3.57;;;2.30;;
8986;SDS011;4529;51.360;12.474;2022-10-24T22:26:09;4.03;;;2.30;;
8986;SDS011;4529;51.360;12.474;2022-10-24T22:31:12;2.87;;;2.50;;
8986;SDS011;4529;51.360;12.474;2022-10-24T22:41:43;4.57;;;2.47;;
8986;SDS011;4529;51.360;12.474;2022-10-24T22:52:30;6.00;;;2.40;;
8986;SDS011;4529;51.360;12.474;2022-10-24T22:57:34;5.03;;;2.40;;
8986;SDS011;4529;51.360;12.474;2022-10-24T23:02:38;6.20;;;2.30;;
8986;SDS011;4529;51.360;12.474;2022-10-24T23:07:45;3.37;;;2.17;;
8986;SDS011;4529;51.360;12.474;2022-10-24T23:12:53;5.47;;;2.50;;
8986;SDS011;4529;51.360;12.474;2022-10-24T23:17:57;4.60;;;2.30;;
8986;SDS011;4529;51.360;12.474;2022-10-24T23:23:00;5.93;;;2.40;;
8986;SDS011;4529;51.360;12.474;2022-10-24T23:28:13;6.53;;;2.60;;
8986;SDS011;4529;51.360;12.474;2022-10-24T23:33:26;5.73;;;2.40;;
8986;SDS011;4529;51.360;12.474;2022-10-24T23:38:29;4.87;;;2.33;;
8986;SDS011;4529;51.360;12.474;2022-10-24T23:43:34;4.10;;;2.30;;
8986;SDS011;4529;51.360;12.474;2022-10-24T23:53:59;3.10;;;2.27;;
8986;SDS011;4529;51.360;12.474;2022-10-24T23:59:03;4.17;;;2.33;;
